Relevés horaires Bierset (Belgique)


Relevés horaires à Bierset - Mercredi 27 Sept. 2017
Heure UTC1 Température [°C] Vent [km/h] Hum. [%] Pres.4 [hPa] Visi. [Km] Nébu. [octa] Préc.5 [mm] Cond.
2m. Res. Ros. Dir.2 Vit. Moy. Raf.3
23:00 14.9 14.9 8.8 SE 3.7 5.6 16.7 67 1021.9(-0.3/3h) 30 7/8 -- --
22:00 15.6 15.6 8.6 SE 5.6 5.6 11.1 63 1022.1(0.0/3h) 30 7/8 -- --
21:00 15.6 15.6 8.3 SE 5.6 5.6 11.1 62 1022(0.1/3h) 30 7/8 -- --
20:00 16.3 16.3 8.3 SE 3.7 3.7 11.1 59 1022.1(0.5/3h) 30 7/8 -- --
19:00 17.2 17.2 8.5 SE 3.7 3.7 5.6 57 1021.9(0.5/3h) 30 7/8 -- --
18:00 18.0 18.0 7.9 SSE 3.7 5.6 13.0 52 1021.7(0.3/3h) 30 7/8 0/12h
--
17:00 19.1 19.1 8.4 SSE 3.7 3.7 13.0 50 1021.4(-0.3/3h) 30 7/8 -- --
16:00 19.7 19.7 8.8 SSO 3.7 3.7 7.4 49 1021.2(-0.6/3h) 30 7/8 -- --
15:00 20.3 20.3 9.4 ESE 3.7 5.6 11.1 50 1021.1(-0.8/3h) 30 6/8 -- --
14:00 20.0 20.0 9.6 SSE 3.7 5.6 9.3 51 1021.6(-0.8/3h) 30 6/8 -- --
13:00 20.1 20.1 9.6 SSE 3.7 5.6 11.1 51 1021.8(-0.8/3h) 30 7/8 -- --
12:00 20.6 20.6 10.4 NNO 1.9 5.6 18.5 52 1021.9(-0.9/3h) 25 4/8 0/6h
--
11:00 -- -- -- S 3.7 5.6 11.1 -- 1000(-0.3/3h) 20 5/8 -- --
10:00 17.9 17.9 11.1 SSE 3.7 5.6 9.3 64 1022.8(0.1/3h) 18 6/8 -- --
09:00 16.3 16.3 11.0 SE 3.7 5.6 18.5 71 1023.2(0.7/3h) 18 6/8 -- --
08:00 14.4 14.4 10.4 SE 5.6 5.6 18.5 77 1023.2(0.8/3h) 15 5/8 -- --
07:00 12.7 12.7 10.4 SE 3.7 5.6 11.1 86 1023.1(0.7/3h) 14 6/8 -- --
06:00 12.4 12.3 8.8 SE 5.6 7.4 24.1 79 1022.8(0.3/3h) 14 6/8 0/12h
--
05:00 12.9 12.9 9.3 SE 5.6 5.6 13.0 79 1022.4(0.0/3h) 14 5/8 -- --
04:00 13.5 13.5 9.7 SSE 5.6 7.4 14.8 78 1022.4(0.1/3h) 14 5/8 -- --
03:00 13.4 13.1 10.7 SSE 7.4 7.4 24.1 84 1022.4(-0.2/3h) 14 5/8 -- --
02:00 13.4 13.4 10.7 SSE 5.6 7.4 9.3 84 1022.4(-0.1/3h) 14 4/8 -- --
01:00 13.7 13.7 11.0 SSE 5.6 7.4 24.1 84 1022.4(0.2/3h) 14 4/8 -- --
00:00 13.4 13.4 10.7 SSE 5.6 7.4 20.4 84 1022.6(-0.2/3h) 14 3/8 0/6h
0/24h
--

1 Coordinated Universal Time. Actuellement il est 10:00 locale et 08:00 UTC.

2 Le vent souffle depuis la direction indiquée vers la direction oposée.

3 Les rafales max. sont disponible 40 min après l'heure du relevé.

4 Pour les stations d'altitude (plus de 600m) le géopotentiel du niveau le plus proche de la pression obligatoire est indiqué.

5 Les stations disposant d'un diffuseur peuvent indiquer "trace". Cela signifie que des précipitations ont touchés le sol mais que la quantité est inférieure à 0.1 mm.

Récapitulatif de la journée
Température [°C] Vent [km/h] Ensoleillement4 [h] Precipitations totale5 [mm] Pression [Hpa]
Min1 Max.2 Moy.3 Max. Min Max.
12.2 24.0 5.7 24.1 0 h 0 min 0 1000.0 1023.2

1 Température minimale relevée entre 18:00 UTC la veille et 18:00 UTC le jour donné.

2 Température maximale relevée entre 06:00 UTC le jour donné et 06:00 UTC le lendemain.

3 Vent moyen de la journée basé sur les relevés horaires.

4 Ensoleillement en heures relevé entre 06:00 UTC la veille et 06:00 UTC le jour donné.

5 Précipitations totales tombées entre 06:00 UTC la jour donné et 06:00 UTC le lendemain.

Graphiques horaires